Time;durP1;ratioP1;P1;durP2;ratioP2;P2;SDS_P1;SDS_P2;PMS_P1;PMS_P2;Temp;Humidity;BMP_temperature;BMP_pressure;BME280_temperature;BME280_humidity;BME280_pressure;Samples;Min_cycle;Max_cycle;Signal;HPM_P1;HPM_P2
2022/03/24 00:00:07;;;;;;;18.23;9.30;;;;;;;6.15;53.11;99724.28;5032683;28;20207;-60
2022/03/24 00:02:39;;;;;;;19.23;8.87;;;;;;;6.01;52.83;99723.38;5032657;28;20217;-60
2022/03/24 00:05:06;;;;;;;13.97;8.97;;;;;;;5.93;52.98;99722.97;5032382;28;20185;-60
2022/03/24 00:07:33;;;;;;;14.80;9.00;;;;;;;5.97;53.32;99724.44;5028486;28;20287;-60
2022/03/24 00:09:59;;;;;;;13.10;8.27;;;;;;;5.97;52.54;99719.28;5021591;28;20220;-60
2022/03/24 00:12:27;;;;;;;15.47;9.10;;;;;;;6.11;51.98;99715.03;5013097;28;20206;-61
2022/03/24 00:14:54;;;;;;;14.40;8.90;;;;;;;6.04;53.77;99717.16;5012264;28;20210;-59
2022/03/24 00:17:21;;;;;;;13.27;8.47;;;;;;;5.90;51.75;99723.16;5012335;28;20192;-61
2022/03/24 00:19:48;;;;;;;13.53;8.70;;;;;;;5.98;52.68;99710.56;5017947;28;20189;-61
2022/03/24 00:22:15;;;;;;;15.50;9.47;;;;;;;5.99;53.54;99712.22;5032565;28;20291;-61
2022/03/24 00:24:42;;;;;;;18.47;8.57;;;;;;;5.93;54.04;99706.56;5031870;28;20185;-61
2022/03/24 00:27:10;;;;;;;15.43;9.13;;;;;;;5.88;52.38;99706.88;5049133;28;20212;-61
2022/03/24 00:29:38;;;;;;;15.83;9.37;;;;;;;5.91;53.07;99704.91;5052168;28;20235;-60
2022/03/24 00:32:06;;;;;;;15.47;9.57;;;;;;;5.88;51.67;99701.69;5052102;28;20202;-61
2022/03/24 00:34:32;;;;;;;13.40;8.90;;;;;;;5.88;53.87;99699.91;5050668;28;20192;-60
2022/03/24 00:37:00;;;;;;;14.83;9.37;;;;;;;5.98;51.23;99705.38;5052061;28;20560;-61
2022/03/24 00:39:27;;;;;;;17.77;9.43;;;;;;;5.96;51.16;99707.25;5039602;28;20198;-61
2022/03/24 00:41:54;;;;;;;16.20;9.30;;;;;;;5.89;52.90;99700.78;5011022;28;20253;-61
2022/03/24 00:44:22;;;;;;;17.60;9.10;;;;;;;5.88;51.83;99697.31;5011864;28;20192;-61
2022/03/24 00:46:50;;;;;;;14.50;9.40;;;;;;;5.85;54.31;99696.69;5010773;28;20237;-61
2022/03/24 00:49:17;;;;;;;15.77;8.73;;;;;;;5.74;53.98;99693.00;5011400;28;20203;-61
2022/03/24 00:51:44;;;;;;;16.47;9.40;;;;;;;5.74;53.99;99689.59;5030167;28;20185;-61
2022/03/24 00:54:11;;;;;;;23.47;9.73;;;;;;;5.87;53.40;99687.88;5030301;28;20204;-60
2022/03/24 00:56:38;;;;;;;17.70;9.17;;;;;;;5.89;55.97;99688.63;5030726;28;20196;-60
2022/03/24 00:59:05;;;;;;;14.33;8.90;;;;;;;5.77;54.47;99689.41;5030445;28;20196;-61
2022/03/24 01:01:32;;;;;;;15.37;9.27;;;;;;;5.82;54.22;99686.53;5027574;28;20234;-62
2022/03/24 01:04:00;;;;;;;16.63;9.30;;;;;;;5.68;55.03;99685.59;5030358;28;20252;-62
2022/03/24 01:06:27;;;;;;;18.33;9.37;;;;;;;5.70;55.25;99686.34;5030146;28;20197;-61
2022/03/24 01:08:54;;;;;;;16.83;9.10;;;;;;;5.74;54.88;99687.00;5030217;28;20204;-61
2022/03/24 01:11:22;;;;;;;17.23;9.87;;;;;;;5.73;54.74;99682.75;5029992;28;20192;-61
2022/03/24 01:13:49;;;;;;;17.40;10.57;;;;;;;5.66;55.93;99677.09;5028948;28;20297;-60
2022/03/24 01:16:16;;;;;;;14.60;8.93;;;;;;;5.70;56.15;99677.75;5031178;28;20191;-62
2022/03/24 01:18:44;;;;;;;15.83;9.20;;;;;;;5.54;56.91;99675.25;5032106;28;20255;-61
2022/03/24 01:21:16;;;;;;;16.73;9.13;;;;;;;5.43;55.53;99675.91;5031363;28;20199;-61
2022/03/24 01:23:43;;;;;;;16.80;9.33;;;;;;;5.39;55.50;99677.81;5030386;28;20235;-61
2022/03/24 01:26:11;;;;;;;16.43;8.57;;;;;;;5.34;55.30;99679.03;5030132;28;20193;-60
2022/03/24 01:28:39;;;;;;;14.03;8.63;;;;;;;5.30;56.28;99689.56;5030457;28;20290;-61
2022/03/24 01:31:08;;;;;;;13.63;9.10;;;;;;;5.32;55.23;99682.53;5030856;28;20242;-60
2022/03/24 01:33:38;;;;;;;18.37;8.70;;;;;;;5.27;55.52;99678.56;5025259;28;20228;-61
2022/03/24 01:36:06;;;;;;;12.77;8.50;;;;;;;5.14;55.94;99687.06;5021626;28;20222;-61
2022/03/24 01:38:34;;;;;;;15.83;9.77;;;;;;;5.06;55.85;99691.84;5018048;28;20659;-60
2022/03/24 01:41:01;;;;;;;14.10;9.00;;;;;;;5.09;56.20;99691.69;5018397;28;20188;-62
2022/03/24 01:43:28;;;;;;;17.97;9.03;;;;;;;5.17;56.32;99686.03;5022427;28;20203;-60
2022/03/24 01:45:55;;;;;;;16.23;8.23;;;;;;;4.97;56.52;99685.44;5021410;28;20188;-60
2022/03/24 01:48:22;;;;;;;15.93;9.10;;;;;;;4.92;57.58;99694.41;5029003;28;20262;-61
2022/03/24 01:50:52;;;;;;;13.80;8.57;;;;;;;5.04;56.71;99688.50;5028677;28;20191;-61
2022/03/24 01:53:19;;;;;;;14.57;9.10;;;;;;;4.96;56.09;99688.13;5030180;28;20688;-60
2022/03/24 01:55:50;;;;;;;14.53;8.40;;;;;;;4.90;56.94;99686.72;5028356;28;20191;-60
2022/03/24 01:58:17;;;;;;;15.17;8.50;;;;;;;4.90;58.43;99685.88;5028742;28;20254;-61
2022/03/24 02:00:45;;;;;;;15.37;8.83;;;;;;;4.82;57.94;99688.91;5028436;28;20192;-60
2022/03/24 02:03:14;;;;;;;15.50;8.77;;;;;;;4.83;56.95;99678.47;5029911;28;20216;-61
2022/03/24 02:05:45;;;;;;;15.03;9.07;;;;;;;4.87;56.35;99681.72;5029507;28;20189;-60
2022/03/24 02:08:13;;;;;;;18.37;8.47;;;;;;;4.80;55.59;99670.91;5028644;28;20696;-61
2022/03/24 02:10:41;;;;;;;21.00;9.53;;;;;;;4.94;54.38;99677.03;5028339;28;20261;-59
2022/03/24 02:13:11;;;;;;;16.03;8.77;;;;;;;4.82;56.68;99674.22;5028291;28;20223;-59
2022/03/24 02:15:38;;;;;;;23.00;10.57;;;;;;;4.73;57.09;99675.59;5028214;28;20192;-59
2022/03/24 02:18:10;;;;;;;19.40;8.93;;;;;;;4.77;56.75;99665.06;5029711;28;20263;-59
2022/03/24 02:20:39;;;;;;;14.23;8.83;;;;;;;4.66;57.26;99671.69;5029270;28;20295;-59
2022/03/24 02:23:07;;;;;;;14.37;8.53;;;;;;;4.62;57.26;99667.63;5029218;28;20254;-59
2022/03/24 02:25:35;;;;;;;15.80;9.80;;;;;;;4.49;57.89;99667.44;5029791;28;20199;-59
2022/03/24 02:28:03;;;;;;;17.03;8.23;;;;;;;4.39;57.10;99669.72;5030334;28;20243;-59
2022/03/24 02:30:30;;;;;;;16.03;9.10;;;;;;;4.62;57.90;99666.75;5030552;28;20192;-59
2022/03/24 02:32:57;;;;;;;16.80;9.37;;;;;;;4.54;58.87;99665.44;5040680;22;20218;-58
2022/03/24 02:35:24;;;;;;;15.23;8.77;;;;;;;4.46;58.32;99671.97;4990145;28;20763;-58
2022/03/24 02:37:56;;;;;;;18.63;9.63;;;;;;;4.46;58.92;99666.81;4985345;28;20201;-58
2022/03/24 02:40:25;;;;;;;16.53;9.40;;;;;;;4.56;57.55;99675.72;4982292;28;20206;-58
2022/03/24 02:42:52;;;;;;;15.57;9.60;;;;;;;4.49;58.00;99666.63;5005928;28;20203;-58
2022/03/24 02:45:19;;;;;;;16.33;9.70;;;;;;;4.58;57.66;99664.34;4990532;28;20531;-58
2022/03/24 02:47:46;;;;;;;19.50;9.30;;;;;;;4.48;57.83;99662.38;4990858;28;20206;-58
2022/03/24 02:50:13;;;;;;;20.00;10.03;;;;;;;4.49;58.02;99656.28;4990627;28;20189;-58
2022/03/24 02:52:40;;;;;;;20.20;10.03;;;;;;;4.41;59.11;99662.72;4991140;28;20191;-58
2022/03/24 02:55:08;;;;;;;22.23;9.93;;;;;;;4.55;57.98;99656.78;4990652;28;20194;-58
2022/03/24 02:57:37;;;;;;;12.60;8.30;;;;;;;4.43;57.69;99660.88;4991009;28;20182;-58
2022/03/24 03:00:06;;;;;;;15.83;8.80;;;;;;;4.50;57.73;99658.78;4990840;28;20678;-58
2022/03/24 03:02:32;;;;;;;16.53;9.37;;;;;;;4.48;58.43;99657.22;4989817;28;20217;-57
2022/03/24 03:05:01;;;;;;;14.23;9.47;;;;;;;4.61;56.48;99653.03;4989999;28;20613;-58
2022/03/24 03:07:28;;;;;;;21.83;9.50;;;;;;;4.65;56.04;99661.41;4990906;28;20285;-58
2022/03/24 03:09:55;;;;;;;18.70;9.03;;;;;;;4.59;56.88;99654.84;4990622;28;20208;-58
2022/03/24 03:12:22;;;;;;;16.13;9.53;;;;;;;4.56;56.21;99655.84;4990991;28;20189;-58
2022/03/24 03:14:50;;;;;;;20.20;9.97;;;;;;;4.53;55.92;99658.59;4990475;28;20209;-58
2022/03/24 03:17:17;;;;;;;15.90;8.87;;;;;;;4.52;57.94;99656.94;4990936;28;20205;-58
2022/03/24 03:19:45;;;;;;;18.03;9.03;;;;;;;4.57;56.12;99661.88;4990693;28;20194;-57
2022/03/24 03:22:12;;;;;;;17.13;9.13;;;;;;;4.48;57.41;99655.44;4990845;28;20221;-58
2022/03/24 03:24:40;;;;;;;13.53;8.60;;;;;;;4.41;57.41;99662.72;4990247;28;20254;-57
2022/03/24 03:27:08;;;;;;;16.97;9.20;;;;;;;4.40;56.67;99668.81;4990707;28;20193;-58
2022/03/24 03:29:35;;;;;;;17.43;9.80;;;;;;;4.58;56.20;99673.88;4990535;28;20253;-58
2022/03/24 03:32:04;;;;;;;15.63;8.47;;;;;;;4.52;59.02;99667.28;4990809;28;20196;-58
2022/03/24 03:34:31;;;;;;;15.63;9.40;;;;;;;4.52;57.90;99671.63;4990163;28;20222;-58
2022/03/24 03:36:58;;;;;;;16.40;8.77;;;;;;;4.46;57.56;99669.38;4974754;28;20653;-58
2022/03/24 03:39:25;;;;;;;15.03;8.40;;;;;;;4.31;56.51;99664.16;4981812;28;20293;-58
2022/03/24 03:41:52;;;;;;;21.37;9.13;;;;;;;4.16;58.69;99676.19;4971006;28;20196;-58
2022/03/24 03:44:20;;;;;;;15.17;9.20;;;;;;;4.16;59.33;99683.94;4970564;28;20217;-58
2022/03/24 03:46:47;;;;;;;16.60;9.57;;;;;;;4.09;58.33;99680.84;4971189;28;20615;-58
2022/03/24 03:49:16;;;;;;;13.70;8.00;;;;;;;4.18;58.06;99686.41;4971037;28;20247;-58
2022/03/24 03:51:45;;;;;;;14.50;8.87;;;;;;;4.07;58.70;99685.25;4972430;28;20186;-58
2022/03/24 03:54:11;;;;;;;18.40;9.50;;;;;;;3.95;58.75;99685.91;4973737;28;20430;-58
2022/03/24 03:56:40;;;;;;;13.07;8.50;;;;;;;3.88;60.01;99685.41;4974251;28;20261;-58
2022/03/24 03:59:07;;;;;;;13.27;8.03;;;;;;;3.88;59.69;99679.41;4974273;28;20685;-58
2022/03/24 04:01:36;;;;;;;11.60;7.50;;;;;;;3.86;59.65;99676.91;4974309;28;20192;-58
2022/03/24 04:04:04;;;;;;;14.93;8.67;;;;;;;3.82;59.74;99680.56;4974411;28;20741;-58
2022/03/24 04:06:32;;;;;;;13.03;8.03;;;;;;;3.70;60.07;99682.06;4974402;28;20190;-58
2022/03/24 04:08:59;;;;;;;16.43;8.43;;;;;;;3.62;60.84;99682.44;4974775;28;20211;-58
2022/03/24 04:11:28;;;;;;;18.97;8.13;;;;;;;3.78;60.08;99672.13;4973979;28;20202;-58
2022/03/24 04:13:58;;;;;;;16.63;8.90;;;;;;;3.77;60.19;99669.66;4974153;28;20202;-58
2022/03/24 04:16:25;;;;;;;21.80;8.07;;;;;;;3.72;60.37;99676.81;4974278;28;20194;-59
2022/03/24 04:18:52;;;;;;;13.13;8.07;;;;;;;3.67;59.61;99674.47;4974309;28;20249;-58
2022/03/24 04:21:19;;;;;;;12.53;8.60;;;;;;;3.54;60.10;99669.97;4959334;28;20201;-58
2022/03/24 04:23:49;;;;;;;13.07;7.90;;;;;;;3.57;60.14;99670.72;4954777;28;20211;-58
2022/03/24 04:26:16;;;;;;;13.50;8.00;;;;;;;3.76;58.50;99665.41;4954262;29;20273;-58
2022/03/24 04:28:44;;;;;;;14.67;7.43;;;;;;;3.81;58.56;99673.75;4954447;28;20213;-58
2022/03/24 04:31:11;;;;;;;13.53;7.57;;;;;;;3.71;58.78;99678.53;4954572;28;20187;-58
2022/03/24 04:33:38;;;;;;;14.10;8.80;;;;;;;3.61;59.66;99670.47;4957339;28;20221;-58
2022/03/24 04:36:08;;;;;;;15.20;8.63;;;;;;;3.58;59.71;99672.38;4984354;28;20802;-58
2022/03/24 04:38:35;;;;;;;14.80;8.53;;;;;;;3.64;60.02;99670.28;4986456;28;20261;-58
2022/03/24 04:41:04;;;;;;;13.97;8.40;;;;;;;3.55;60.20;99678.53;4981242;28;20289;-58
2022/03/24 04:43:30;;;;;;;14.93;8.70;;;;;;;3.74;59.13;99680.16;4989002;28;20225;-58
2022/03/24 04:45:57;;;;;;;14.67;8.50;;;;;;;3.78;57.97;99677.31;4985554;28;20198;-58
2022/03/24 04:48:24;;;;;;;16.03;8.13;;;;;;;3.66;59.13;99683.16;4992927;28;20202;-58
2022/03/24 04:50:51;;;;;;;13.93;8.10;;;;;;;3.61;59.93;99683.38;4992563;28;20550;-57
2022/03/24 04:53:18;;;;;;;12.87;8.00;;;;;;;3.68;59.34;99682.13;4992342;28;20258;-58
2022/03/24 04:55:46;;;;;;;11.97;7.53;;;;;;;3.62;58.90;99679.06;4992249;28;20818;-58
2022/03/24 04:58:15;;;;;;;15.47;7.93;;;;;;;3.57;60.07;99678.47;4993028;28;20188;-58
2022/03/24 05:00:42;;;;;;;15.30;8.97;;;;;;;3.48;61.38;99682.34;4992522;28;20205;-58
2022/03/24 05:03:10;;;;;;;14.20;8.27;;;;;;;3.50;60.89;99677.94;4992792;28;20214;-58
2022/03/24 05:05:36;;;;;;;14.70;8.07;;;;;;;3.50;60.75;99680.50;4992366;28;20541;-59
2022/03/24 05:08:05;;;;;;;15.80;8.43;;;;;;;3.45;60.17;99685.06;4992690;28;20599;-58
2022/03/24 05:10:32;;;;;;;16.00;8.40;;;;;;;3.44;59.63;99689.41;4992317;28;20196;-58
2022/03/24 05:12:59;;;;;;;15.33;8.80;;;;;;;3.64;59.27;99690.13;4992681;28;20216;-58
2022/03/24 05:15:27;;;;;;;16.90;8.67;;;;;;;3.62;58.86;99697.94;4992188;28;20193;-58
2022/03/24 05:17:54;;;;;;;14.70;8.20;;;;;;;3.55;59.33;99699.16;4982334;28;20710;-58
2022/03/24 05:20:21;;;;;;;14.17;8.63;;;;;;;3.46;60.38;99694.47;4953519;28;20190;-58
2022/03/24 05:22:48;;;;;;;14.37;8.70;;;;;;;3.47;60.72;99698.72;4953777;28;20701;-57
2022/03/24 05:25:15;;;;;;;15.33;8.93;;;;;;;3.57;59.95;99710.25;4953223;28;20189;-58
2022/03/24 05:27:42;;;;;;;16.03;8.70;;;;;;;3.44;61.16;99714.38;4953593;28;20221;-58
2022/03/24 05:30:09;;;;;;;19.20;9.93;;;;;;;3.39;62.43;99715.44;4953231;28;20193;-58
2022/03/24 05:32:41;;;;;;;15.93;9.20;;;;;;;3.30;62.99;99715.91;4953529;28;20195;-57
2022/03/24 05:35:09;;;;;;;13.47;8.23;;;;;;;3.22;62.67;99715.47;4952977;28;20207;-58
2022/03/24 05:37:35;;;;;;;16.47;9.17;;;;;;;3.17;63.71;99722.63;4953408;28;20607;-58
2022/03/24 05:40:02;;;;;;;16.17;9.20;;;;;;;3.24;63.20;99726.53;4953100;28;20189;-57
2022/03/24 05:42:29;;;;;;;13.93;8.57;;;;;;;3.20;63.68;99728.44;4953359;28;20684;-58
2022/03/24 05:44:56;;;;;;;13.53;8.37;;;;;;;3.14;63.70;99727.94;4952920;28;20222;-58
2022/03/24 05:47:23;;;;;;;14.80;8.80;;;;;;;3.16;63.85;99723.53;4953198;28;20195;-57
2022/03/24 05:49:52;;;;;;;14.47;8.60;;;;;;;3.16;64.22;99723.53;4952227;28;20212;-58
2022/03/24 05:52:42;;;;;;;17.73;9.30;;;;;;;3.17;63.43;99728.59;4942494;28;20200;-58
2022/03/24 05:55:09;;;;;;;17.60;10.07;;;;;;;3.17;63.91;99726.03;4952248;28;20183;-58
2022/03/24 05:57:36;;;;;;;14.50;9.23;;;;;;;3.24;63.85;99723.94;4953067;28;20213;-58
2022/03/24 06:00:06;;;;;;;20.47;10.00;;;;;;;3.26;64.10;99727.28;4953288;28;20250;-58
2022/03/24 06:02:40;;;;;;;20.80;13.20;;;;;;;3.33;63.46;99725.25;4953214;28;20194;-58
2022/03/24 06:05:12;;;;;;;23.60;15.43;;;;;;;3.31;63.76;99727.91;4952577;28;20203;-58
2022/03/24 06:07:39;;;;;;;18.03;11.73;;;;;;;3.34;64.74;99730.31;4952864;28;20214;-57
2022/03/24 06:10:08;;;;;;;15.87;9.80;;;;;;;3.51;62.83;99733.81;4952540;28;20698;-58
2022/03/24 06:12:35;;;;;;;15.27;8.23;;;;;;;3.48;63.46;99734.81;4952881;28;20190;-58
2022/03/24 06:15:02;;;;;;;15.27;8.53;;;;;;;3.54;64.63;99737.09;4952183;28;20191;-58
2022/03/24 06:17:29;;;;;;;17.23;9.17;;;;;;;3.56;64.19;99741.34;4952845;28;20247;-58
2022/03/24 06:19:56;;;;;;;14.63;8.10;;;;;;;3.55;63.54;99748.22;4952451;28;20187;-58
2022/03/24 06:22:24;;;;;;;18.40;9.97;;;;;;;3.64;64.05;99741.78;4952534;28;20191;-58
2022/03/24 06:24:51;;;;;;;19.05;11.63;;;;;;;3.66;64.15;99742.53;4951376;28;20436;-58
2022/03/24 06:27:18;;;;;;;15.13;9.63;;;;;;;3.65;63.92;99740.88;4952668;28;20198;-58
2022/03/24 06:29:45;;;;;;;15.00;9.30;;;;;;;3.68;63.94;99745.88;4952424;28;20214;-58
2022/03/24 06:32:13;;;;;;;15.93;9.00;;;;;;;3.71;64.18;99747.44;4952625;28;20688;-58
2022/03/24 06:34:39;;;;;;;15.33;8.83;;;;;;;3.71;63.92;99742.28;4955906;28;20243;-58
2022/03/24 06:37:07;;;;;;;15.13;8.20;;;;;;;3.82;63.33;99735.63;4983597;28;20655;-57
2022/03/24 06:39:35;;;;;;;19.67;10.20;;;;;;;3.90;62.49;99739.56;4981466;28;20198;-58
2022/03/24 06:42:02;;;;;;;24.87;9.43;;;;;;;3.97;62.14;99744.34;4978883;28;20636;-59
2022/03/24 06:44:29;;;;;;;45.17;12.23;;;;;;;4.05;62.60;99743.09;4952226;28;20207;-58
2022/03/24 06:46:56;;;;;;;15.93;8.83;;;;;;;4.04;63.21;99747.41;4952337;28;20194;-58
2022/03/24 06:49:23;;;;;;;13.23;8.60;;;;;;;4.13;62.03;99744.34;4952102;28;20293;-58
2022/03/24 06:51:50;;;;;;;15.20;8.37;;;;;;;4.16;63.00;99737.34;4951707;28;20193;-57
2022/03/24 06:54:17;;;;;;;14.87;7.60;;;;;;;4.22;63.47;99744.78;4951461;28;20728;-59
2022/03/24 06:56:45;;;;;;;17.00;7.83;;;;;;;4.27;62.69;99741.00;4951935;28;20196;-58
2022/03/24 06:59:12;;;;;;;16.37;8.43;;;;;;;4.35;64.25;99742.34;4952244;28;20278;-58
2022/03/24 07:01:40;;;;;;;15.77;9.57;;;;;;;4.45;64.45;99746.09;4951777;28;20448;-59
2022/03/24 07:04:07;;;;;;;25.63;14.87;;;;;;;4.52;64.00;99744.84;4951818;28;20206;-59
2022/03/24 07:06:34;;;;;;;21.53;13.20;;;;;;;4.64;62.75;99740.78;4951601;28;20605;-59
2022/03/24 07:09:00;;;;;;;21.60;12.37;;;;;;;4.80;61.43;99745.06;4952431;28;20212;-58
2022/03/24 07:11:27;;;;;;;22.87;10.30;;;;;;;4.86;62.08;99736.97;4952037;28;20229;-58
2022/03/24 07:13:55;;;;;;;14.90;9.50;;;;;;;4.96;60.55;99740.69;4952303;28;20235;-58
2022/03/24 07:16:22;;;;;;;18.30;9.00;;;;;;;5.03;61.08;99736.03;4964725;28;20222;-58
2022/03/24 07:18:50;;;;;;;14.43;8.33;;;;;;;5.04;61.33;99735.09;4982068;28;20719;-58
2022/03/24 07:21:16;;;;;;;15.47;8.17;;;;;;;5.11;62.04;99736.41;4982376;28;20399;-58
2022/03/24 07:23:44;;;;;;;14.60;8.93;;;;;;;5.22;62.73;99732.38;4982854;28;20221;-58
2022/03/24 07:26:11;;;;;;;16.63;9.23;;;;;;;5.35;60.58;99737.66;4986413;28;20199;-58
2022/03/24 07:28:37;;;;;;;14.33;8.60;;;;;;;5.53;59.71;99733.16;4983968;28;20750;-59
2022/03/24 07:31:16;;;;;;;14.10;8.87;;;;;;;5.62;59.77;99735.19;4985842;28;20203;-59
2022/03/24 07:33:43;;;;;;;18.80;9.17;;;;;;;5.93;58.26;99737.69;4986150;28;20223;-58
2022/03/24 07:36:10;;;;;;;18.17;8.97;;;;;;;5.98;60.00;99735.63;4994300;28;20241;-59
2022/03/24 07:38:38;;;;;;;15.50;8.47;;;;;;;6.14;58.47;99744.16;4985945;28;20194;-59
2022/03/24 07:41:05;;;;;;;14.77;9.13;;;;;;;6.34;58.66;99742.97;4985587;28;20196;-58
2022/03/24 07:43:31;;;;;;;20.50;11.93;;;;;;;6.60;58.01;99748.25;4981896;28;20706;-58
2022/03/24 07:45:58;;;;;;;26.37;15.03;;;;;;;6.81;58.78;99750.41;4980741;28;20216;-58
2022/03/24 07:48:26;;;;;;;24.47;13.73;;;;;;;6.93;58.43;99752.19;4976723;28;20670;-59
2022/03/24 07:50:54;;;;;;;24.33;14.60;;;;;;;7.07;58.71;99756.47;4962721;28;20660;-59
2022/03/24 07:53:42;;;;;;;26.53;14.37;;;;;;;7.13;59.03;99750.06;4963505;28;20214;-59
2022/03/24 07:56:11;;;;;;;25.80;15.00;;;;;;;7.19;58.65;99756.59;4964879;28;20203;-60
2022/03/24 07:58:38;;;;;;;30.20;16.63;;;;;;;7.28;58.75;99762.97;4964096;28;20298;-58
2022/03/24 08:01:06;;;;;;;31.33;15.77;;;;;;;7.34;59.84;99760.78;4960857;28;20208;-59
2022/03/24 08:03:35;;;;;;;24.90;14.93;;;;;;;7.44;59.31;99760.19;4980500;28;20777;-59
2022/03/24 08:06:02;;;;;;;27.33;16.20;;;;;;;7.49;58.11;99769.31;4971326;28;20656;-59
2022/03/24 08:08:29;;;;;;;31.17;16.47;;;;;;;7.62;58.08;99758.09;4966576;28;20229;-59
2022/03/24 08:10:56;;;;;;;27.33;16.57;;;;;;;7.60;57.68;99767.78;4963785;28;20215;-59
2022/03/24 08:13:23;;;;;;;30.27;17.10;;;;;;;7.67;57.32;99761.22;4962597;28;20676;-59
2022/03/24 08:15:51;;;;;;;30.10;16.63;;;;;;;7.72;56.86;99763.53;4964958;28;20684;-58
2022/03/24 08:18:20;;;;;;;28.17;15.97;;;;;;;7.77;56.68;99761.44;4973999;28;20193;-59
2022/03/24 08:20:49;;;;;;;26.10;16.23;;;;;;;7.88;56.84;99758.09;4974209;28;20577;-59
2022/03/24 08:23:16;;;;;;;27.07;15.37;;;;;;;7.97;56.29;99765.25;4974506;28;20629;-59
2022/03/24 08:25:44;;;;;;;31.37;16.10;;;;;;;8.01;56.39;99764.13;4967745;28;20296;-59
2022/03/24 08:28:13;;;;;;;28.90;16.10;;;;;;;8.08;57.02;99770.56;4963733;28;20197;-59
2022/03/24 08:30:41;;;;;;;27.30;15.50;;;;;;;8.19;55.72;99775.00;4963714;28;20217;-58
2022/03/24 08:33:09;;;;;;;26.20;16.43;;;;;;;8.23;56.76;99771.25;4962224;28;20213;-58
2022/03/24 08:35:36;;;;;;;29.27;15.70;;;;;;;8.39;56.22;99780.59;4966835;28;20197;-60
2022/03/24 08:38:04;;;;;;;28.53;15.40;;;;;;;8.49;55.73;99772.97;4972637;28;20578;-58
2022/03/24 08:40:31;;;;;;;31.10;15.00;;;;;;;8.62;54.88;99775.56;4966295;28;20248;-59
2022/03/24 08:42:58;;;;;;;28.37;16.30;;;;;;;8.73;53.55;99777.38;4963517;28;20210;-59
2022/03/24 08:45:25;;;;;;;28.80;16.93;;;;;;;8.69;53.78;99781.97;4961711;28;20559;-59
2022/03/24 08:47:53;;;;;;;27.90;15.67;;;;;;;8.78;53.00;99785.69;4972999;28;20189;-59
2022/03/24 08:50:21;;;;;;;27.53;15.00;;;;;;;8.79;51.72;99788.19;4971706;28;20244;-59
2022/03/24 08:52:49;;;;;;;24.87;15.87;;;;;;;8.83;52.89;99786.19;4949407;28;20199;-59
2022/03/24 08:55:18;;;;;;;27.07;16.47;;;;;;;8.95;52.55;99785.28;4962527;28;20216;-59
2022/03/24 08:57:47;;;;;;;26.70;15.97;;;;;;;8.93;52.83;99781.97;4963872;28;20481;-58
2022/03/24 09:00:17;;;;;;;30.63;16.63;;;;;;;9.04;52.76;99788.16;4962409;28;20192;-58
2022/03/24 09:02:45;;;;;;;23.87;15.37;;;;;;;9.12;51.90;99784.06;4961528;28;20205;-59
2022/03/24 09:05:13;;;;;;;24.97;16.03;;;;;;;9.17;51.32;99781.13;4961840;28;20190;-59
2022/03/24 09:07:40;;;;;;;24.83;15.17;;;;;;;9.22;51.58;99788.59;4960715;28;20740;-59
2022/03/24 09:10:10;;;;;;;24.13;15.23;;;;;;;9.33;51.10;99786.00;4963227;28;20236;-59
2022/03/24 09:12:40;;;;;;;28.17;16.17;;;;;;;9.33;52.24;99783.41;4962595;28;20206;-59
2022/03/24 09:15:09;;;;;;;27.33;16.00;;;;;;;9.49;51.71;99790.09;4961010;28;20198;-59
2022/03/24 09:17:38;;;;;;;28.13;17.30;;;;;;;9.51;51.83;99788.19;4962704;28;20191;-59
2022/03/24 09:20:09;;;;;;;28.83;16.30;;;;;;;9.58;50.52;99792.81;4963139;28;20193;-59
2022/03/24 09:22:36;;;;;;;32.00;16.93;;;;;;;9.70;50.07;99796.28;4960995;28;20262;-58
2022/03/24 09:25:04;;;;;;;30.17;16.80;;;;;;;9.73;50.40;99790.00;4961489;28;20186;-59
2022/03/24 09:27:31;;;;;;;29.17;16.00;;;;;;;9.77;51.25;99783.59;4961388;28;20201;-59
2022/03/24 09:29:59;;;;;;;28.80;15.77;;;;;;;9.86;51.19;99782.09;4961945;28;20383;-59
2022/03/24 09:32:26;;;;;;;31.83;16.67;;;;;;;9.86;50.61;99780.31;4963127;28;20611;-59
2022/03/24 09:34:54;;;;;;;32.20;17.73;;;;;;;10.05;51.13;99778.88;4960975;28;20223;-59
2022/03/24 09:37:22;;;;;;;29.63;17.33;;;;;;;10.15;49.92;99785.06;4961843;28;20200;-59
2022/03/24 09:39:50;;;;;;;29.17;17.37;;;;;;;10.26;50.20;99783.38;4963020;28;20270;-59
2022/03/24 09:42:17;;;;;;;31.93;18.43;;;;;;;10.27;51.27;99785.84;4961800;28;20685;-58
2022/03/24 09:44:45;;;;;;;28.73;18.03;;;;;;;10.38;49.88;99784.19;4960829;28;20211;-59
2022/03/24 09:47:13;;;;;;;30.83;18.97;;;;;;;10.39;51.02;99780.63;4961062;28;20679;-59
2022/03/24 09:49:41;;;;;;;28.97;16.97;;;;;;;10.57;49.92;99783.63;4960729;28;20245;-58
2022/03/24 09:52:10;;;;;;;34.90;19.07;;;;;;;10.63;49.76;99789.16;4963214;28;20194;-58
2022/03/24 09:54:37;;;;;;;30.63;18.90;;;;;;;10.59;50.58;99769.47;4959987;28;20664;-58
2022/03/24 09:57:05;;;;;;;36.73;20.53;;;;;;;10.80;50.04;99783.53;4962444;28;20665;-58
2022/03/24 09:59:32;;;;;;;34.53;20.00;;;;;;;10.79;50.61;99782.72;4960935;28;20192;-58
2022/03/24 10:02:02;;;;;;;36.27;19.67;;;;;;;10.92;51.09;99780.78;4961650;28;20206;-58
2022/03/24 10:04:44;;;;;;;33.63;19.87;;;;;;;10.94;50.14;99778.03;4965607;28;20707;-58
2022/03/24 10:07:11;;;;;;;36.27;20.63;;;;;;;10.98;49.48;99781.22;4972443;28;20652;-59
2022/03/24 10:09:40;;;;;;;31.33;20.27;;;;;;;10.98;48.58;99784.66;4972187;28;20207;-58
2022/03/24 10:12:08;;;;;;;35.30;20.90;;;;;;;10.98;48.99;99786.47;4972947;28;20671;-59
2022/03/24 10:14:36;;;;;;;36.10;19.93;;;;;;;11.02;49.99;99778.22;4960934;28;20590;-59
2022/03/24 10:17:07;;;;;;;36.33;19.23;;;;;;;11.11;47.70;99783.66;4969622;28;20199;-58
2022/03/24 10:19:36;;;;;;;40.27;19.97;;;;;;;11.19;46.41;99773.41;4970515;28;20215;-58
2022/03/24 10:22:08;;;;;;;33.77;19.53;;;;;;;11.27;46.58;99773.59;4952502;28;20192;-59
2022/03/24 10:24:41;;;;;;;33.97;19.73;;;;;;;11.43;46.77;99775.75;4952444;28;20210;-59
2022/03/24 10:27:08;;;;;;;35.73;19.97;;;;;;;11.44;46.95;99774.00;4952934;28;20208;-59
2022/03/24 10:29:36;;;;;;;32.73;19.30;;;;;;;11.59;47.17;99777.94;4954292;28;20208;-59
2022/03/24 10:32:05;;;;;;;36.43;19.80;;;;;;;11.81;47.29;99787.41;4961417;28;20652;-59
2022/03/24 10:34:33;;;;;;;38.87;20.73;;;;;;;11.85;46.23;99785.34;4960742;28;20297;-59
2022/03/24 10:37:05;;;;;;;33.63;19.83;;;;;;;11.90;45.27;99775.31;4964903;28;20202;-59
2022/03/24 10:39:33;;;;;;;43.97;21.93;;;;;;;11.73;46.86;99773.31;4966094;28;20243;-59
2022/03/24 10:42:14;;;;;;;37.77;20.40;;;;;;;11.92;47.09;99772.59;4959732;28;20273;-59
2022/03/24 10:45:10;;;;;;;35.77;18.77;;;;;;;12.05;45.35;99773.22;4959221;28;20206;-59
2022/03/24 10:47:39;;;;;;;29.50;18.93;;;;;;;12.13;45.59;99772.56;4962042;28;20199;-59
2022/03/24 10:50:24;;;;;;;35.07;19.87;;;;;;;12.14;45.39;99771.59;4960376;28;20206;-59
2022/03/24 10:52:54;;;;;;;30.97;19.13;;;;;;;12.16;46.63;99761.81;4960132;28;20202;-59
2022/03/24 10:55:34;;;;;;;40.83;18.73;;;;;;;12.31;46.23;99762.25;4959119;28;20210;-58
2022/03/24 10:58:01;;;;;;;36.13;19.93;;;;;;;12.39;46.93;99766.84;4959702;28;20194;-59
2022/03/24 11:00:29;;;;;;;36.07;19.93;;;;;;;12.52;45.46;99767.44;4962027;28;20182;-59
2022/03/24 11:02:56;;;;;;;38.93;19.57;;;;;;;12.58;46.13;99765.22;4965463;28;20709;-59
2022/03/24 11:05:23;;;;;;;36.33;20.10;;;;;;;12.65;45.71;99763.72;4963567;28;20805;-59
2022/03/24 11:07:55;;;;;;;30.10;19.33;;;;;;;12.79;46.31;99768.53;4964317;28;20214;-60
2022/03/24 11:10:24;;;;;;;31.50;20.57;;;;;;;12.78;45.58;99764.25;4963496;28;20290;-59
2022/03/24 11:12:55;;;;;;;33.30;19.30;;;;;;;12.85;46.22;99762.75;4964203;28;20191;-59
2022/03/24 11:15:22;;;;;;;34.70;19.40;;;;;;;12.94;46.42;99758.50;4964250;28;20275;-59
2022/03/24 11:17:50;;;;;;;36.17;19.57;;;;;;;12.99;46.69;99758.06;4963934;28;20560;-59
2022/03/24 11:20:23;;;;;;;32.00;18.47;;;;;;;13.12;46.53;99760.41;4962562;28;20195;-59
2022/03/24 11:22:52;;;;;;;31.67;19.30;;;;;;;13.29;46.28;99753.63;4965032;28;20394;-58
2022/03/24 11:25:20;;;;;;;37.20;18.63;;;;;;;13.42;44.95;99750.72;4969125;28;20207;-58
2022/03/24 11:27:48;;;;;;;35.00;20.20;;;;;;;13.43;44.98;99750.59;4962718;28;20279;-57
2022/03/24 11:30:16;;;;;;;34.93;20.33;;;;;;;13.52;45.40;99746.28;4962760;28;20204;-58
2022/03/24 11:32:45;;;;;;;32.83;19.03;;;;;;;13.67;44.56;99740.59;4962458;28;20213;-58